Time,TemperatureF,DewpointF,PressureIn,WindDirection,WindDirectionDegrees,WindSpeedMPH,WindSpeedGustMPH,Humidity,HourlyPrecipIn,Conditions,Clouds,dailyrainin,SoftwareType,DateUTC
2013-09-13 00:01:00,67.8,49.6,29.21,North,353,0.0,0.0,52,0.00,,,0.12,VWS V13.01,2013-09-13 04:01:00,
2013-09-13 00:06:00,67.6,49.4,29.21,North,353,0.0,0.0,52,0.00,,,0.12,VWS V13.01,2013-09-13 04:06:00,
2013-09-13 00:11:00,67.5,49.2,29.21,North,353,0.0,0.0,52,0.00,,,0.12,VWS V13.01,2013-09-13 04:11:00,
2013-09-13 00:16:00,67.5,49.2,29.21,North,353,0.0,0.0,52,0.00,,,0.12,VWS V13.01,2013-09-13 04:16:00,
2013-09-13 00:21:00,67.3,49.1,29.21,North,353,0.0,0.0,52,0.00,,,0.12,VWS V13.01,2013-09-13 04:21:00,
2013-09-13 00:27:00,67.3,49.6,29.21,North,353,0.0,3.1,53,0.00,,,0.12,VWS V13.01,2013-09-13 04:27:00,
2013-09-13 00:31:00,67.3,49.6,29.18,North,353,0.0,0.0,53,0.00,,,0.12,VWS V13.01,2013-09-13 04:31:00,
2013-09-13 00:37:00,67.1,49.9,29.18,North,353,0.0,0.0,54,0.00,,,0.12,VWS V13.01,2013-09-13 04:37:00,
2013-09-13 00:42:00,67.3,50.1,29.18,North,353,0.0,0.0,54,0.00,,,0.12,VWS V13.01,2013-09-13 04:42:00,
2013-09-13 00:47:00,67.6,51.9,29.18,North,353,2.7,2.7,57,0.00,,,0.12,VWS V13.01,2013-09-13 04:47:00,
2013-09-13 00:52:00,68.2,53.3,29.18,North,349,2.2,3.1,59,0.00,,,0.12,VWS V13.01,2013-09-13 04:52:00,
2013-09-13 00:57:00,68.5,53.7,29.18,NNW,329,0.0,0.0,59,0.00,,,0.12,VWS V13.01,2013-09-13 04:57:00,
2013-09-13 01:02:00,68.5,53.7,29.18,NNW,337,0.0,0.0,59,0.00,,,0.12,VWS V13.01,2013-09-13 05:02:00,
2013-09-13 01:07:00,68.7,54.3,29.18,NNW,343,0.0,0.0,60,0.00,,,0.12,VWS V13.01,2013-09-13 05:07:00,
2013-09-13 01:12:00,68.7,54.3,29.18,NNW,343,0.0,0.0,60,0.00,,,0.12,VWS V13.01,2013-09-13 05:12:00,
2013-09-13 01:17:00,68.9,54.5,29.18,NNW,343,0.0,0.0,60,0.00,,,0.12,VWS V13.01,2013-09-13 05:17:00,
2013-09-13 01:22:00,69.1,54.6,29.18,NNW,343,0.0,2.2,60,0.00,,,0.12,VWS V13.01,2013-09-13 05:22:00,
2013-09-13 01:27:00,69.1,54.6,29.18,North,349,2.7,2.7,60,0.00,,,0.12,VWS V13.01,2013-09-13 05:27:00,
2013-09-13 01:32:00,69.3,54.8,29.18,NNW,345,0.0,3.1,60,0.00,,,0.12,VWS V13.01,2013-09-13 05:32:00,
2013-09-13 01:37:00,69.3,54.8,29.18,NNW,333,2.2,4.0,60,0.00,,,0.12,VWS V13.01,2013-09-13 05:37:00,
2013-09-13 01:42:00,69.4,54.5,29.18,NNW,339,2.7,2.7,59,0.00,,,0.12,VWS V13.01,2013-09-13 05:42:00,
2013-09-13 01:47:00,69.4,54.0,29.18,North,353,2.7,3.1,58,0.00,,,0.12,VWS V13.01,2013-09-13 05:47:00,
2013-09-13 01:52:00,69.3,52.9,29.18,North,357,2.7,2.7,56,0.00,,,0.12,VWS V13.01,2013-09-13 05:52:00,
2013-09-13 01:57:00,69.3,51.4,29.18,NW,325,2.7,3.6,53,0.00,,,0.12,VWS V13.01,2013-09-13 05:57:00,
2013-09-13 02:02:00,69.3,51.4,29.18,NW,318,2.2,2.2,53,0.00,,,0.12,VWS V13.01,2013-09-13 06:02:00,
2013-09-13 02:07:00,69.3,50.9,29.18,NW,319,0.0,2.2,52,0.00,,,0.12,VWS V13.01,2013-09-13 06:07:00,
2013-09-13 02:12:00,69.1,50.7,29.18,NW,319,0.0,0.0,52,0.00,,,0.12,VWS V13.01,2013-09-13 06:12:00,
2013-09-13 02:17:00,68.9,50.0,29.18,NW,319,0.0,0.0,51,0.00,,,0.12,VWS V13.01,2013-09-13 06:17:00,
2013-09-13 02:22:00,68.9,50.0,29.18,NW,319,0.0,0.0,51,0.00,,,0.12,VWS V13.01,2013-09-13 06:22:00,
2013-09-13 02:27:00,68.7,49.9,29.18,NW,319,0.0,0.0,51,0.00,,,0.12,VWS V13.01,2013-09-13 06:27:00,
2013-09-13 02:32:00,68.5,49.2,29.18,NW,319,0.0,0.0,50,0.00,,,0.12,VWS V13.01,2013-09-13 06:32:00,
2013-09-13 02:37:00,68.4,49.0,29.18,NW,319,0.0,0.0,50,0.00,,,0.12,VWS V13.01,2013-09-13 06:37:00,
2013-09-13 02:42:00,68.2,48.8,29.18,NW,319,0.0,0.0,50,0.00,,,0.12,VWS V13.01,2013-09-13 06:42:00,
2013-09-13 02:47:00,68.2,48.8,29.18,NW,319,0.0,0.0,50,0.00,,,0.12,VWS V13.01,2013-09-13 06:47:00,
2013-09-13 02:52:00,68.0,48.7,29.18,NW,319,0.0,2.7,50,0.00,,,0.12,VWS V13.01,2013-09-13 06:52:00,
2013-09-13 02:57:00,68.0,48.7,29.18,NNW,330,0.0,2.2,50,0.00,,,0.12,VWS V13.01,2013-09-13 06:57:00,
2013-09-13 03:02:00,68.0,49.2,29.18,NNW,330,0.0,0.0,51,0.00,,,0.12,VWS V13.01,2013-09-13 07:02:00,
2013-09-13 03:07:00,67.8,49.0,29.18,NW,324,0.0,0.0,51,0.00,,,0.12,VWS V13.01,2013-09-13 07:07:00,
2013-09-13 03:12:00,67.8,49.6,29.18,NW,324,0.0,0.0,52,0.00,,,0.12,VWS V13.01,2013-09-13 07:12:00,
2013-09-13 03:17:00,67.8,49.6,29.18,NW,324,0.0,0.0,52,0.00,,,0.12,VWS V13.01,2013-09-13 07:17:00,
2013-09-13 03:22:00,67.8,49.6,29.18,NW,324,0.0,0.0,52,0.00,,,0.12,VWS V13.01,2013-09-13 07:22:00,
2013-09-13 03:27:00,67.6,49.4,29.18,NW,324,0.0,0.0,52,0.00,,,0.12,VWS V13.01,2013-09-13 07:27:00,
2013-09-13 03:32:00,67.6,49.4,29.18,NW,324,0.0,0.0,52,0.00,,,0.12,VWS V13.01,2013-09-13 07:32:00,
2013-09-13 03:37:00,67.5,49.2,29.18,NW,324,0.0,0.0,52,0.00,,,0.12,VWS V13.01,2013-09-13 07:37:00,
2013-09-13 03:42:00,67.3,49.1,29.18,NW,324,0.0,0.0,52,0.00,,,0.12,VWS V13.01,2013-09-13 07:42:00,
2013-09-13 03:47:00,67.3,49.1,29.18,NW,324,0.0,2.2,52,0.00,,,0.12,VWS V13.01,2013-09-13 07:47:00,
2013-09-13 03:52:00,67.3,49.6,29.18,NW,324,0.0,0.0,53,0.00,,,0.12,VWS V13.01,2013-09-13 07:52:00,
2013-09-13 03:57:00,67.1,49.4,29.18,NW,324,0.0,0.0,53,0.00,,,0.12,VWS V13.01,2013-09-13 07:57:00,
2013-09-13 04:02:00,67.1,49.4,29.18,NW,324,0.0,0.0,53,0.00,,,0.12,VWS V13.01,2013-09-13 08:02:00,
2013-09-13 04:07:00,67.1,49.9,29.18,NW,324,0.0,0.0,54,0.00,,,0.12,VWS V13.01,2013-09-13 08:07:00,
2013-09-13 04:12:00,67.1,49.9,29.18,NNW,329,0.0,0.0,54,0.00,,,0.12,VWS V13.01,2013-09-13 08:12:00,
2013-09-13 04:17:00,66.9,49.8,29.18,NNW,332,2.7,3.1,54,0.00,,,0.12,VWS V13.01,2013-09-13 08:17:00,
2013-09-13 04:22:00,66.9,49.8,29.18,NW,319,4.0,4.0,54,0.00,,,0.12,VWS V13.01,2013-09-13 08:22:00,
2013-09-13 04:27:00,66.7,49.6,29.18,NW,324,2.7,4.0,54,0.00,,,0.12,VWS V13.01,2013-09-13 08:27:00,
2013-09-13 04:32:00,66.6,49.9,29.21,NNW,331,0.0,5.4,55,0.00,,,0.12,VWS V13.01,2013-09-13 08:32:00,
2013-09-13 04:37:00,66.6,49.9,29.21,NW,315,3.1,4.9,55,0.00,,,0.12,VWS V13.01,2013-09-13 08:37:00,
2013-09-13 04:42:00,66.6,49.4,29.21,WNW,296,3.6,8.3,54,0.00,,,0.12,VWS V13.01,2013-09-13 08:42:00,
2013-09-13 04:47:00,66.6,48.4,29.21,NW,323,5.4,8.3,52,0.00,,,0.12,VWS V13.01,2013-09-13 08:47:00,
2013-09-13 04:52:00,66.9,47.2,29.21,North,353,5.4,8.3,49,0.00,,,0.12,VWS V13.01,2013-09-13 08:52:00,
2013-09-13 04:57:00,66.9,45.5,29.21,NW,324,3.6,3.6,46,0.00,,,0.12,VWS V13.01,2013-09-13 08:57:00,
2013-09-13 05:02:00,66.7,44.2,29.21,WSW,258,0.0,4.0,44,0.00,,,0.12,VWS V13.01,2013-09-13 09:02:00,
2013-09-13 05:07:00,66.7,43.5,29.21,NNW,338,3.1,3.1,43,0.00,,,0.12,VWS V13.01,2013-09-13 09:07:00,
2013-09-13 05:12:00,66.6,43.4,29.21,NW,317,0.0,0.0,43,0.00,,,0.12,VWS V13.01,2013-09-13 09:12:00,
2013-09-13 05:17:00,66.4,43.2,29.21,SSW,202,0.0,0.0,43,0.00,,,0.12,VWS V13.01,2013-09-13 09:17:00,
2013-09-13 05:22:00,66.2,42.5,29.21,WSW,239,0.0,0.0,42,0.00,,,0.12,VWS V13.01,2013-09-13 09:22:00,
2013-09-13 05:27:00,66.0,42.3,29.21,NW,326,0.0,0.0,42,0.00,,,0.12,VWS V13.01,2013-09-13 09:27:00,
2013-09-13 05:32:00,65.8,42.1,29.21,NW,322,0.0,2.2,42,0.00,,,0.12,VWS V13.01,2013-09-13 09:32:00,
2013-09-13 05:37:00,65.8,42.1,29.21,North,6,0.0,2.7,42,0.00,,,0.12,VWS V13.01,2013-09-13 09:37:00,
2013-09-13 05:42:00,65.8,42.1,29.21,NW,305,5.8,5.8,42,0.00,,,0.12,VWS V13.01,2013-09-13 09:42:00,
2013-09-13 05:47:00,65.8,41.5,29.21,North,353,3.1,3.6,41,0.00,,,0.12,VWS V13.01,2013-09-13 09:47:00,
2013-09-13 05:52:00,65.7,40.7,29.21,North,1,0.0,4.0,40,0.00,,,0.12,VWS V13.01,2013-09-13 09:52:00,
2013-09-13 05:57:00,65.7,40.0,29.21,North,357,0.0,0.0,39,0.00,,,0.12,VWS V13.01,2013-09-13 09:57:00,
2013-09-13 06:02:00,65.7,40.0,29.21,West,277,0.0,2.7,39,0.00,,,0.12,VWS V13.01,2013-09-13 10:02:00,
2013-09-13 06:07:00,65.7,39.4,29.21,NNW,329,2.7,2.7,38,0.00,,,0.12,VWS V13.01,2013-09-13 10:07:00,
2013-09-13 06:12:00,65.7,39.4,29.21,North,0,4.0,4.0,38,0.00,,,0.12,VWS V13.01,2013-09-13 10:12:00,
2013-09-13 06:17:00,65.7,38.7,29.21,NNW,336,3.1,3.1,37,0.00,,,0.12,VWS V13.01,2013-09-13 10:17:00,
2013-09-13 06:22:00,65.5,37.8,29.21,WNW,287,2.7,4.9,36,0.00,,,0.12,VWS V13.01,2013-09-13 10:22:00,
2013-09-13 06:28:00,65.3,36.2,29.21,NW,318,2.2,6.3,34,0.00,,,0.12,VWS V13.01,2013-09-13 10:28:00,
2013-09-13 06:33:00,65.3,36.2,29.23,NW,317,2.2,4.0,34,0.00,,,0.12,VWS V13.01,2013-09-13 10:33:00,
2013-09-13 06:38:00,65.1,36.1,29.23,WNW,297,3.6,4.0,34,0.00,,,0.12,VWS V13.01,2013-09-13 10:38:00,
2013-09-13 06:45:00,64.8,35.8,29.23,NNW,345,0.0,2.7,34,0.00,,,0.12,VWS V13.01,2013-09-13 10:45:00,
2013-09-13 06:55:00,64.4,35.5,29.23,NW,326,2.2,5.8,34,0.00,,,0.12,VWS V13.01,2013-09-13 10:55:00,
2013-09-13 07:00:00,64.2,35.3,29.23,NW,324,3.1,3.6,34,0.00,,,0.12,VWS V13.01,2013-09-13 11:00:00,
2013-09-13 07:05:00,64.0,34.4,29.23,NNE,12,3.6,5.8,33,0.00,,,0.12,VWS V13.01,2013-09-13 11:05:00,
2013-09-13 07:15:00,63.7,34.1,29.23,NNW,329,3.6,6.3,33,0.00,,,0.12,VWS V13.01,2013-09-13 11:15:00,
2013-09-13 07:25:00,63.1,32.8,29.23,SE,133,4.9,7.6,32,0.00,,,0.12,VWS V13.01,2013-09-13 11:25:00,
2013-09-13 07:30:00,63.0,32.7,29.26,ENE,71,2.2,5.8,32,0.00,,,0.12,VWS V13.01,2013-09-13 11:30:00,
2013-09-13 07:35:00,62.8,32.5,29.26,North,357,5.4,7.6,32,0.00,,,0.12,VWS V13.01,2013-09-13 11:35:00,
2013-09-13 07:42:00,62.6,31.6,29.26,NNE,12,3.1,5.8,31,0.00,,,0.12,VWS V13.01,2013-09-13 11:42:00,
2013-09-13 07:47:00,62.4,32.2,29.26,NW,325,6.3,9.2,32,0.00,,,0.12,VWS V13.01,2013-09-13 11:47:00,
2013-09-13 07:52:00,62.2,32.0,29.26,North,353,4.0,5.4,32,0.00,,,0.12,VWS V13.01,2013-09-13 11:52:00,
2013-09-13 07:57:00,62.1,31.9,29.26,North,5,5.4,5.4,32,0.00,,,0.12,VWS V13.01,2013-09-13 11:57:00,
2013-09-13 08:02:00,61.9,31.7,29.26,NW,321,2.7,4.9,32,0.00,,,0.12,VWS V13.01,2013-09-13 12:02:00,
2013-09-13 08:07:00,61.9,32.5,29.26,NNW,332,4.0,4.0,33,0.00,,,0.12,VWS V13.01,2013-09-13 12:07:00,
2013-09-13 08:12:00,61.9,32.5,29.26,NW,317,3.6,6.3,33,0.00,,,0.12,VWS V13.01,2013-09-13 12:12:00,
2013-09-13 08:17:00,62.1,32.6,29.26,NW,323,0.0,2.2,33,0.00,,,0.12,VWS V13.01,2013-09-13 12:17:00,
2013-09-13 08:22:00,62.1,31.9,29.26,NNW,339,3.6,5.8,32,0.00,,,0.12,VWS V13.01,2013-09-13 12:22:00,
2013-09-13 08:27:00,62.2,32.0,29.26,North,357,5.4,6.3,32,0.00,,,0.12,VWS V13.01,2013-09-13 12:27:00,
2013-09-13 08:32:00,62.2,31.2,29.26,NNW,343,2.7,5.8,31,0.00,,,0.12,VWS V13.01,2013-09-13 12:32:00,
2013-09-13 08:37:00,62.2,31.2,29.26,NNW,333,5.8,7.6,31,0.00,,,0.12,VWS V13.01,2013-09-13 12:37:00,
2013-09-13 08:42:00,62.2,31.2,29.26,North,353,0.0,4.0,31,0.00,,,0.12,VWS V13.01,2013-09-13 12:42:00,
2013-09-13 08:47:00,62.4,29.8,29.26,North,353,0.0,5.8,29,0.00,,,0.12,VWS V13.01,2013-09-13 12:47:00,
2013-09-13 08:52:00,62.2,28.8,29.26,North,0,8.3,10.5,28,0.00,,,0.12,VWS V13.01,2013-09-13 12:52:00,
2013-09-13 08:57:00,62.2,27.0,29.26,South,174,2.7,7.6,26,0.00,,,0.12,VWS V13.01,2013-09-13 12:57:00,
2013-09-13 09:02:00,62.4,28.0,29.26,NNW,333,6.3,6.3,27,0.00,,,0.12,VWS V13.01,2013-09-13 13:02:00,
2013-09-13 09:07:00,62.4,27.1,29.26,NNW,328,4.9,6.3,26,0.00,,,0.12,VWS V13.01,2013-09-13 13:07:00,
2013-09-13 09:12:00,62.8,27.4,29.26,North,349,3.6,6.3,26,0.00,,,0.12,VWS V13.01,2013-09-13 13:12:00,
2013-09-13 09:17:00,62.8,27.4,29.26,North,6,5.4,5.8,26,0.00,,,0.12,VWS V13.01,2013-09-13 13:17:00,
2013-09-13 09:22:00,63.0,27.6,29.26,NNW,344,3.1,8.1,26,0.00,,,0.12,VWS V13.01,2013-09-13 13:22:00,
2013-09-13 09:27:00,63.5,27.1,29.26,NNW,335,2.2,3.1,25,0.00,,,0.12,VWS V13.01,2013-09-13 13:27:00,
2013-09-13 09:32:00,63.5,26.1,29.29,NNE,20,5.4,5.4,24,0.00,,,0.12,VWS V13.01,2013-09-13 13:32:00,
2013-09-13 09:37:00,63.1,25.8,29.29,SW,226,4.9,4.9,24,0.00,,,0.12,VWS V13.01,2013-09-13 13:37:00,
2013-09-13 09:42:00,63.1,25.8,29.29,NW,308,4.0,4.0,24,0.00,,,0.12,VWS V13.01,2013-09-13 13:42:00,
2013-09-13 09:47:00,63.3,25.9,29.26,SE,140,2.2,2.2,24,0.00,,,0.12,VWS V13.01,2013-09-13 13:47:00,
2013-09-13 09:52:00,63.7,26.2,29.26,North,8,0.0,7.6,24,0.00,,,0.12,VWS V13.01,2013-09-13 13:52:00,
2013-09-13 09:57:00,63.9,23.2,29.26,NNW,337,3.6,5.8,21,0.00,,,0.12,VWS V13.01,2013-09-13 13:57:00,
2013-09-13 10:02:00,64.0,23.3,29.29,SW,232,0.0,5.4,21,0.00,,,0.12,VWS V13.01,2013-09-13 14:02:00,
2013-09-13 10:07:00,64.2,23.5,29.29,West,281,3.1,3.6,21,0.00,,,0.12,VWS V13.01,2013-09-13 14:07:00,
2013-09-13 10:12:00,64.4,20.0,29.29,NE,44,2.7,6.7,18,0.00,,,0.12,VWS V13.01,2013-09-13 14:12:00,
2013-09-13 10:17:00,64.6,20.1,29.26,NW,324,5.4,7.2,18,0.00,,,0.12,VWS V13.01,2013-09-13 14:17:00,
2013-09-13 10:22:00,64.4,15.8,29.26,NNW,328,5.8,8.3,15,0.00,,,0.12,VWS V13.01,2013-09-13 14:22:00,
2013-09-13 10:27:00,64.6,15.9,29.29,NNE,17,2.7,4.9,15,0.00,,,0.12,VWS V13.01,2013-09-13 14:27:00,
2013-09-13 10:32:00,65.5,20.9,29.29,NW,307,2.2,3.1,18,0.00,,,0.12,VWS V13.01,2013-09-13 14:32:00,
2013-09-13 10:37:00,65.7,16.8,29.29,South,189,3.1,4.0,15,0.00,,,0.12,VWS V13.01,2013-09-13 14:37:00,
2013-09-13 10:42:00,66.2,17.2,29.29,NNW,343,4.9,6.3,15,0.00,,,0.12,VWS V13.01,2013-09-13 14:42:00,
2013-09-13 10:47:00,66.2,17.2,29.29,NW,312,8.3,8.7,15,0.00,,,0.12,VWS V13.01,2013-09-13 14:47:00,
2013-09-13 10:52:00,65.5,16.6,29.29,WNW,298,3.6,8.1,15,0.00,,,0.12,VWS V13.01,2013-09-13 14:52:00,
2013-09-13 10:57:00,65.3,16.5,29.29,NW,312,10.5,10.5,15,0.00,,,0.12,VWS V13.01,2013-09-13 14:57:00,
2013-09-13 11:02:00,65.8,16.9,29.29,South,180,0.0,3.6,15,0.00,,,0.12,VWS V13.01,2013-09-13 15:02:00,
2013-09-13 11:07:00,66.2,17.2,29.29,NW,317,6.3,8.3,15,0.00,,,0.12,VWS V13.01,2013-09-13 15:07:00,
2013-09-13 11:12:00,66.0,17.1,29.29,WNW,298,4.9,10.1,15,0.00,,,0.12,VWS V13.01,2013-09-13 15:12:00,
2013-09-13 11:17:00,66.0,17.1,29.29,NW,308,6.3,6.7,15,0.00,,,0.12,VWS V13.01,2013-09-13 15:17:00,
2013-09-13 11:22:00,66.2,17.2,29.29,NW,324,8.3,8.3,15,0.00,,,0.12,VWS V13.01,2013-09-13 15:22:00,
2013-09-13 11:28:00,66.2,12.1,29.29,WNW,289,6.3,7.6,12,0.00,,,0.12,VWS V13.01,2013-09-13 15:28:00,
2013-09-13 11:33:00,66.0,13.8,29.29,North,4,5.8,5.8,13,0.00,,,0.12,VWS V13.01,2013-09-13 15:33:00,
2013-09-13 11:38:00,66.0,13.8,29.29,NNE,16,4.9,5.8,13,0.00,,,0.12,VWS V13.01,2013-09-13 15:38:00,
2013-09-13 11:43:00,66.9,12.7,29.29,North,353,4.0,5.8,12,0.00,,,0.12,VWS V13.01,2013-09-13 15:43:00,
2013-09-13 11:48:00,67.3,13.0,29.29,East,84,4.0,6.3,12,0.00,,,0.12,VWS V13.01,2013-09-13 15:48:00,
2013-09-13 11:53:00,67.5,13.1,29.29,NW,320,8.1,10.1,12,0.00,,,0.12,VWS V13.01,2013-09-13 15:53:00,
2013-09-13 11:58:00,67.5,13.1,29.29,North,0,5.8,7.6,12,0.00,,,0.12,VWS V13.01,2013-09-13 15:58:00,
2013-09-13 12:03:00,67.6,13.2,29.26,NW,322,7.6,8.7,12,0.00,,,0.00,VWS V13.01,2013-09-13 16:03:00,
2013-09-13 12:08:00,67.8,13.4,29.26,West,278,8.3,8.7,12,0.00,,,0.00,VWS V13.01,2013-09-13 16:08:00,
2013-09-13 12:13:00,67.6,13.2,29.26,NNW,345,8.7,8.7,12,0.00,,,0.00,VWS V13.01,2013-09-13 16:13:00,
2013-09-13 12:18:00,67.5,13.1,29.26,NNW,338,6.3,10.5,12,0.00,,,0.00,VWS V13.01,2013-09-13 16:18:00,
2013-09-13 12:23:00,67.6,13.2,29.26,NW,314,8.1,8.3,12,0.00,,,0.00,VWS V13.01,2013-09-13 16:23:00,
2013-09-13 12:28:00,67.6,13.2,29.26,North,353,5.4,12.3,12,0.00,,,0.00,VWS V13.01,2013-09-13 16:28:00,
2013-09-13 12:33:00,67.8,13.4,29.26,NNW,327,8.3,10.1,12,0.00,,,0.00,VWS V13.01,2013-09-13 16:33:00,
2013-09-13 12:38:00,67.8,13.4,29.26,WNW,288,6.3,10.1,12,0.00,,,0.00,VWS V13.01,2013-09-13 16:38:00,
2013-09-13 12:43:00,68.0,13.5,29.26,SSE,159,0.0,10.5,12,0.00,,,0.00,VWS V13.01,2013-09-13 16:43:00,
2013-09-13 12:48:00,68.5,13.9,29.29,NNW,341,5.4,11.0,12,0.00,,,0.00,VWS V13.01,2013-09-13 16:48:00,
2013-09-13 12:53:00,68.4,13.8,29.29,North,353,6.3,8.1,12,0.00,,,0.00,VWS V13.01,2013-09-13 16:53:00,
2013-09-13 12:58:00,68.0,13.5,29.26,NE,51,6.3,10.5,12,0.00,,,0.00,VWS V13.01,2013-09-13 16:58:00,
2013-09-13 13:03:00,68.4,13.8,29.26,North,357,8.3,8.7,12,0.00,,,0.00,VWS V13.01,2013-09-13 17:03:00,
2013-09-13 13:08:00,68.2,13.7,29.26,NNW,330,5.4,12.3,12,0.00,,,0.00,VWS V13.01,2013-09-13 17:08:00,
2013-09-13 13:13:00,68.4,13.8,29.26,NW,319,6.3,10.1,12,0.00,,,0.00,VWS V13.01,2013-09-13 17:13:00,
2013-09-13 13:18:00,68.5,13.9,29.26,North,0,5.8,12.8,12,0.00,,,0.00,VWS V13.01,2013-09-13 17:18:00,
2013-09-13 13:23:00,68.7,14.1,29.26,NNW,337,8.3,10.5,12,0.00,,,0.00,VWS V13.01,2013-09-13 17:23:00,
2013-09-13 13:28:00,68.7,14.1,29.26,NNW,335,8.1,15.0,12,0.00,,,0.00,VWS V13.01,2013-09-13 17:28:00,
2013-09-13 13:33:00,68.9,14.2,29.26,WNW,298,5.8,5.8,12,0.00,,,0.00,VWS V13.01,2013-09-13 17:33:00,
2013-09-13 13:38:00,68.7,14.1,29.26,North,0,8.1,12.3,12,0.00,,,0.00,VWS V13.01,2013-09-13 17:38:00,
2013-09-13 13:43:00,68.9,14.2,29.26,NW,319,5.8,10.1,12,0.00,,,0.00,VWS V13.01,2013-09-13 17:43:00,
2013-09-13 13:48:00,69.1,14.4,29.26,NW,310,7.6,13.6,12,0.00,,,0.00,VWS V13.01,2013-09-13 17:48:00,
2013-09-13 13:53:00,69.1,14.4,29.26,West,281,3.1,8.1,12,0.00,,,0.00,VWS V13.01,2013-09-13 17:53:00,
2013-09-13 13:58:00,68.9,14.2,29.26,NNW,329,5.8,9.6,12,0.00,,,0.00,VWS V13.01,2013-09-13 17:58:00,
2013-09-13 14:03:00,68.5,13.9,29.26,NNW,341,5.4,8.1,12,0.00,,,0.00,VWS V13.01,2013-09-13 18:03:00,
2013-09-13 14:08:00,68.7,14.1,29.26,West,259,5.4,10.1,12,0.00,,,0.00,VWS V13.01,2013-09-13 18:08:00,
2013-09-13 14:13:00,69.3,14.5,29.26,NNW,348,2.7,8.3,12,0.00,,,0.00,VWS V13.01,2013-09-13 18:13:00,
2013-09-13 14:18:00,69.6,14.8,29.26,North,353,3.6,8.1,12,0.00,,,0.00,VWS V13.01,2013-09-13 18:18:00,
2013-09-13 14:23:00,69.6,14.8,29.26,North,357,4.0,5.8,12,0.00,,,0.00,VWS V13.01,2013-09-13 18:23:00,
2013-09-13 14:28:00,70.0,15.1,29.26,WNW,285,5.8,10.5,12,0.00,,,0.00,VWS V13.01,2013-09-13 18:28:00,
2013-09-13 14:33:00,70.2,15.2,29.26,NW,324,5.8,11.0,12,0.00,,,0.00,VWS V13.01,2013-09-13 18:33:00,
2013-09-13 14:38:00,69.3,14.5,29.26,NE,39,3.1,8.7,12,0.00,,,0.00,VWS V13.01,2013-09-13 18:38:00,
2013-09-13 14:43:00,69.3,14.5,29.26,NW,305,6.7,6.7,12,0.00,,,0.00,VWS V13.01,2013-09-13 18:43:00,
2013-09-13 14:48:00,69.4,14.6,29.26,NNW,340,4.0,5.8,12,0.00,,,0.00,VWS V13.01,2013-09-13 18:48:00,
2013-09-13 14:53:00,69.6,14.8,29.26,WNW,293,7.6,10.1,12,0.00,,,0.00,VWS V13.01,2013-09-13 18:53:00,
2013-09-13 14:58:00,70.3,15.4,29.26,West,274,4.0,5.8,12,0.00,,,0.00,VWS V13.01,2013-09-13 18:58:00,
2013-09-13 15:03:00,70.3,15.4,29.26,NW,314,7.6,7.6,12,0.00,,,0.00,VWS V13.01,2013-09-13 19:03:00,
2013-09-13 15:08:00,69.6,14.8,29.26,North,353,6.7,8.7,12,0.00,,,0.00,VWS V13.01,2013-09-13 19:08:00,
2013-09-13 15:13:00,69.3,14.5,29.26,NNW,329,5.4,8.1,12,0.00,,,0.00,VWS V13.01,2013-09-13 19:13:00,
2013-09-13 15:18:00,69.4,14.6,29.26,NW,315,4.0,6.3,12,0.00,,,0.00,VWS V13.01,2013-09-13 19:18:00,
2013-09-13 15:23:00,70.2,15.2,29.26,West,274,3.1,8.7,12,0.00,,,0.00,VWS V13.01,2013-09-13 19:23:00,
2013-09-13 15:28:00,70.9,15.8,29.26,North,4,5.4,12.8,12,0.00,,,0.00,VWS V13.01,2013-09-13 19:28:00,
2013-09-13 15:33:00,70.0,15.1,29.26,NNW,341,8.7,9.6,12,0.00,,,0.00,VWS V13.01,2013-09-13 19:33:00,
2013-09-13 15:38:00,69.1,14.4,29.26,WNW,287,4.9,8.3,12,0.00,,,0.00,VWS V13.01,2013-09-13 19:38:00,
2013-09-13 15:43:00,69.3,14.5,29.26,WNW,300,3.6,8.1,12,0.00,,,0.00,VWS V13.01,2013-09-13 19:43:00,
2013-09-13 15:48:00,69.8,14.9,29.26,North,3,5.4,10.5,12,0.00,,,0.00,VWS V13.01,2013-09-13 19:48:00,
2013-09-13 15:53:00,70.7,15.6,29.26,NW,316,3.6,7.2,12,0.00,,,0.00,VWS V13.01,2013-09-13 19:53:00,
2013-09-13 15:58:00,70.9,15.8,29.26,NE,46,5.4,11.0,12,0.00,,,0.00,VWS V13.01,2013-09-13 19:58:00,
2013-09-13 16:03:00,70.5,15.5,29.26,NNW,336,7.6,11.0,12,0.00,,,0.00,VWS V13.01,2013-09-13 20:03:00,
2013-09-13 16:08:00,69.8,14.9,29.26,NNW,348,6.3,8.3,12,0.00,,,0.00,VWS V13.01,2013-09-13 20:08:00,
2013-09-13 16:13:00,69.6,14.8,29.26,WNW,297,5.8,8.7,12,0.00,,,0.00,VWS V13.01,2013-09-13 20:13:00,
2013-09-13 16:18:00,70.3,15.4,29.26,West,281,4.9,11.0,12,0.00,,,0.00,VWS V13.01,2013-09-13 20:18:00,
2013-09-13 16:23:00,70.5,15.5,29.26,North,353,3.6,11.0,12,0.00,,,0.00,VWS V13.01,2013-09-13 20:23:00,
2013-09-13 16:28:00,70.0,15.1,29.26,WNW,298,8.7,8.7,12,0.00,,,0.00,VWS V13.01,2013-09-13 20:28:00,
2013-09-13 16:33:00,70.2,15.2,29.26,NW,308,3.6,12.8,12,0.00,,,0.00,VWS V13.01,2013-09-13 20:33:00,
2013-09-13 16:38:00,70.9,15.8,29.26,NNW,345,6.7,8.1,12,0.00,,,0.00,VWS V13.01,2013-09-13 20:38:00,
2013-09-13 16:43:00,71.4,16.2,29.23,NNW,341,5.8,8.1,12,0.00,,,0.00,VWS V13.01,2013-09-13 20:43:00,
2013-09-13 16:48:00,71.2,16.1,29.23,NW,314,2.2,8.7,12,0.00,,,0.00,VWS V13.01,2013-09-13 20:48:00,
2013-09-13 16:53:00,71.4,16.2,29.23,NNW,336,7.6,7.6,12,0.00,,,0.00,VWS V13.01,2013-09-13 20:53:00,
2013-09-13 16:58:00,71.2,16.1,29.26,NNW,339,7.6,11.0,12,0.00,,,0.00,VWS V13.01,2013-09-13 20:58:00,
2013-09-13 17:03:00,70.9,15.8,29.26,NW,305,10.1,10.1,12,0.00,,,0.00,VWS V13.01,2013-09-13 21:03:00,
2013-09-13 17:08:00,70.5,15.5,29.26,NNW,329,5.4,8.3,12,0.00,,,0.00,VWS V13.01,2013-09-13 21:08:00,
2013-09-13 17:13:00,70.2,15.2,29.26,West,280,4.0,5.8,12,0.00,,,0.00,VWS V13.01,2013-09-13 21:13:00,
2013-09-13 17:18:00,70.5,15.5,29.26,NW,322,10.5,10.5,12,0.00,,,0.00,VWS V13.01,2013-09-13 21:18:00,
2013-09-13 17:23:00,70.3,15.4,29.26,WNW,297,3.1,11.0,12,0.00,,,0.00,VWS V13.01,2013-09-13 21:23:00,
2013-09-13 17:28:00,70.5,15.5,29.26,North,2,5.8,8.3,12,0.00,,,0.00,VWS V13.01,2013-09-13 21:28:00,
2013-09-13 17:33:00,70.7,15.6,29.26,WNW,296,5.4,8.3,12,0.00,,,0.00,VWS V13.01,2013-09-13 21:33:00,
2013-09-13 17:38:00,70.9,15.8,29.26,WNW,302,10.5,10.5,12,0.00,,,0.00,VWS V13.01,2013-09-13 21:38:00,
2013-09-13 17:43:00,70.0,15.1,29.26,NNE,12,3.6,11.0,12,0.00,,,0.00,VWS V13.01,2013-09-13 21:43:00,
2013-09-13 17:48:00,69.4,14.6,29.26,NW,321,4.0,10.1,12,0.00,,,0.00,VWS V13.01,2013-09-13 21:48:00,
2013-09-13 17:53:00,68.7,14.1,29.26,NW,323,2.7,7.6,12,0.00,,,0.00,VWS V13.01,2013-09-13 21:53:00,
2013-09-13 17:59:00,68.0,13.5,29.26,North,3,4.0,8.7,12,0.00,,,0.00,VWS V13.01,2013-09-13 21:59:00,
2013-09-13 18:04:00,67.3,13.0,29.26,NNW,327,2.7,8.7,12,0.00,,,0.00,VWS V13.01,2013-09-13 22:04:00,
2013-09-13 18:09:00,67.1,12.8,29.26,NW,325,3.1,7.6,12,0.00,,,0.00,VWS V13.01,2013-09-13 22:09:00,
2013-09-13 18:14:00,66.6,12.4,29.26,NNW,345,4.0,8.7,12,0.00,,,0.00,VWS V13.01,2013-09-13 22:14:00,
2013-09-13 18:19:00,66.4,12.3,29.26,NNW,327,3.6,8.1,12,0.00,,,0.00,VWS V13.01,2013-09-13 22:19:00,
2013-09-13 18:24:00,66.2,12.1,29.26,North,1,4.9,8.1,12,0.00,,,0.00,VWS V13.01,2013-09-13 22:24:00,
2013-09-13 18:29:00,66.2,12.1,29.26,NNW,341,3.6,5.4,12,0.00,,,0.00,VWS V13.01,2013-09-13 22:29:00,
2013-09-13 18:34:00,66.4,12.3,29.26,NW,305,7.6,8.7,12,0.00,,,0.00,VWS V13.01,2013-09-13 22:34:00,
2013-09-13 18:39:00,66.7,12.5,29.26,NNW,344,7.6,8.7,12,0.00,,,0.00,VWS V13.01,2013-09-13 22:39:00,
2013-09-13 18:44:00,66.9,12.7,29.26,North,357,5.4,6.3,12,0.00,,,0.00,VWS V13.01,2013-09-13 22:44:00,
2013-09-13 18:49:00,67.3,13.0,29.26,NNW,340,2.7,5.8,12,0.00,,,0.00,VWS V13.01,2013-09-13 22:49:00,
2013-09-13 18:54:00,67.5,13.1,29.26,North,0,2.7,5.4,12,0.00,,,0.00,VWS V13.01,2013-09-13 22:54:00,
2013-09-13 18:59:00,67.1,12.8,29.26,NNW,336,4.5,7.6,12,0.00,,,0.00,VWS V13.01,2013-09-13 22:59:00,
2013-09-13 19:04:00,66.4,12.3,29.26,NNW,327,5.4,7.6,12,0.00,,,0.00,VWS V13.01,2013-09-13 23:04:00,
2013-09-13 19:09:00,66.0,13.8,29.26,NNW,344,2.7,8.1,13,0.00,,,0.00,VWS V13.01,2013-09-13 23:09:00,
2013-09-13 19:14:00,65.7,13.5,29.26,North,353,7.6,8.3,13,0.00,,,0.00,VWS V13.01,2013-09-13 23:14:00,
2013-09-13 19:19:00,65.5,13.4,29.26,North,357,7.6,10.1,13,0.00,,,0.00,VWS V13.01,2013-09-13 23:19:00,
2013-09-13 19:24:00,64.9,12.9,29.26,NNW,327,5.8,12.3,13,0.00,,,0.00,VWS V13.01,2013-09-13 23:24:00,
2013-09-13 19:29:00,64.4,12.5,29.29,NE,35,8.3,9.6,13,0.00,,,0.00,VWS V13.01,2013-09-13 23:29:00,
2013-09-13 19:34:00,64.0,12.2,29.29,NNW,343,8.3,8.7,13,0.00,,,0.00,VWS V13.01,2013-09-13 23:34:00,
2013-09-13 19:39:00,63.5,11.8,29.29,NNW,334,4.0,6.3,13,0.00,,,0.00,VWS V13.01,2013-09-13 23:39:00,
2013-09-13 19:44:00,63.1,11.5,29.29,North,353,2.2,7.6,13,0.00,,,0.00,VWS V13.01,2013-09-13 23:44:00,
2013-09-13 19:49:00,62.8,11.2,29.29,NNW,329,7.6,11.0,13,0.00,,,0.00,VWS V13.01,2013-09-13 23:49:00,
2013-09-13 19:54:00,62.4,12.6,29.29,NNW,339,4.0,10.5,14,0.00,,,0.00,VWS V13.01,2013-09-13 23:54:00,
2013-09-13 19:59:00,62.1,12.3,29.29,SSE,160,3.6,11.0,14,0.00,,,0.00,VWS V13.01,2013-09-13 23:59:00,
2013-09-13 20:04:00,61.9,12.2,29.29,North,0,5.4,10.5,14,0.00,,,0.00,VWS V13.01,2013-09-14 00:04:00,
2013-09-13 20:09:00,61.7,12.1,29.29,NE,44,4.9,7.6,14,0.00,,,0.00,VWS V13.01,2013-09-14 00:09:00,
2013-09-13 20:14:00,61.3,11.8,29.29,NNW,345,2.7,6.3,14,0.00,,,0.00,VWS V13.01,2013-09-14 00:14:00,
2013-09-13 20:20:00,61.2,11.6,29.29,North,0,2.7,6.3,14,0.00,,,0.00,VWS V13.01,2013-09-14 00:20:00,
2013-09-13 20:25:00,61.0,11.5,29.29,WNW,301,5.4,8.1,14,0.00,,,0.00,VWS V13.01,2013-09-14 00:25:00,
2013-09-13 20:30:00,60.8,11.3,29.29,ESE,106,0.0,6.3,14,0.00,,,0.00,VWS V13.01,2013-09-14 00:30:00,
2013-09-13 20:35:00,60.6,11.2,29.29,NNW,340,3.1,7.2,14,0.00,,,0.00,VWS V13.01,2013-09-14 00:35:00,
2013-09-13 20:40:00,60.6,11.2,29.29,North,2,3.1,6.7,14,0.00,,,0.00,VWS V13.01,2013-09-14 00:40:00,
2013-09-13 20:45:00,60.4,11.0,29.29,North,0,2.7,5.4,14,0.00,,,0.00,VWS V13.01,2013-09-14 00:45:00,
2013-09-13 20:50:00,60.3,10.9,29.29,NNW,337,3.1,3.6,14,0.00,,,0.00,VWS V13.01,2013-09-14 00:50:00,
2013-09-13 20:55:00,60.1,10.8,29.29,North,2,2.7,4.5,14,0.00,,,0.00,VWS V13.01,2013-09-14 00:55:00,
2013-09-13 21:00:00,60.1,10.8,29.29,South,191,0.0,3.1,14,0.00,,,0.00,VWS V13.01,2013-09-14 01:00:00,
2013-09-13 21:05:00,59.7,10.5,29.29,SSW,197,0.0,3.1,14,0.00,,,0.00,VWS V13.01,2013-09-14 01:05:00,
2013-09-13 21:10:00,59.5,10.3,29.29,West,268,2.2,3.1,14,0.00,,,0.00,VWS V13.01,2013-09-14 01:10:00,
2013-09-13 21:15:00,59.4,10.2,29.29,North,353,0.0,3.1,14,0.00,,,0.00,VWS V13.01,2013-09-14 01:15:00,
2013-09-13 21:20:00,59.2,10.0,29.29,NNW,334,4.0,7.2,14,0.00,,,0.00,VWS V13.01,2013-09-14 01:20:00,
2013-09-13 21:25:00,59.2,10.0,29.29,North,350,2.2,4.0,14,0.00,,,0.00,VWS V13.01,2013-09-14 01:25:00,
2013-09-13 21:30:00,58.8,9.8,29.32,West,269,2.7,2.7,14,0.00,,,0.00,VWS V13.01,2013-09-14 01:30:00,
2013-09-13 21:35:00,58.6,9.6,29.32,West,264,0.0,2.7,14,0.00,,,0.00,VWS V13.01,2013-09-14 01:35:00,
2013-09-13 21:40:00,58.3,9.3,29.32,West,264,0.0,0.0,14,0.00,,,0.00,VWS V13.01,2013-09-14 01:40:00,
2013-09-13 21:45:00,57.9,9.0,29.32,ESE,107,0.0,0.0,14,0.00,,,0.00,VWS V13.01,2013-09-14 01:45:00,
2013-09-13 21:50:00,57.6,8.7,29.32,WSW,258,0.0,2.7,14,0.00,,,0.00,VWS V13.01,2013-09-14 01:50:00,
2013-09-13 21:55:00,57.4,8.6,29.32,WSW,254,2.2,3.1,14,0.00,,,0.00,VWS V13.01,2013-09-14 01:55:00,
2013-09-13 22:00:00,56.8,9.7,29.32,NNW,340,0.0,2.2,15,0.00,,,0.00,VWS V13.01,2013-09-14 02:00:00,
2013-09-13 22:05:00,56.7,9.6,29.32,NNW,340,0.0,0.0,15,0.00,,,0.00,VWS V13.01,2013-09-14 02:05:00,
2013-09-13 22:10:00,56.3,9.3,29.32,North,5,0.0,0.0,15,0.00,,,0.00,VWS V13.01,2013-09-14 02:10:00,
2013-09-13 22:15:00,55.9,11.8,29.29,North,5,0.0,0.0,17,0.00,,,0.00,VWS V13.01,2013-09-14 02:15:00,
2013-09-13 22:20:00,55.4,11.3,29.29,North,5,0.0,0.0,17,0.00,,,0.00,VWS V13.01,2013-09-14 02:20:00,
2013-09-13 22:25:00,55.0,12.3,29.29,North,5,0.0,0.0,18,0.00,,,0.00,VWS V13.01,2013-09-14 02:25:00,
2013-09-13 22:30:00,54.7,14.4,29.32,North,5,0.0,0.0,20,0.00,,,0.00,VWS V13.01,2013-09-14 02:30:00,
2013-09-13 22:35:00,54.5,19.4,29.32,NNW,348,0.0,2.7,25,0.00,,,0.00,VWS V13.01,2013-09-14 02:35:00,
2013-09-13 22:40:00,54.1,20.0,29.32,NW,314,2.7,2.7,26,0.00,,,0.00,VWS V13.01,2013-09-14 02:40:00,
2013-09-13 22:45:00,54.0,19.9,29.32,NW,314,0.0,2.7,26,0.00,,,0.00,VWS V13.01,2013-09-14 02:45:00,
2013-09-13 22:50:00,53.6,19.6,29.32,NW,314,0.0,0.0,26,0.00,,,0.00,VWS V13.01,2013-09-14 02:50:00,
2013-09-13 22:55:00,53.4,21.1,29.32,NW,314,0.0,0.0,28,0.00,,,0.00,VWS V13.01,2013-09-14 02:55:00,
2013-09-13 23:00:00,53.2,21.8,29.32,North,0,2.2,2.7,29,0.00,,,0.00,VWS V13.01,2013-09-14 03:00:00,
2013-09-13 23:05:00,53.1,24.7,29.32,NNW,344,0.0,0.0,33,0.00,,,0.00,VWS V13.01,2013-09-14 03:05:00,
2013-09-13 23:10:00,52.9,25.3,29.32,NNW,344,0.0,0.0,34,0.00,,,0.00,VWS V13.01,2013-09-14 03:10:00,
2013-09-13 23:15:00,52.9,26.7,29.32,NNW,345,0.0,0.0,36,0.00,,,0.00,VWS V13.01,2013-09-14 03:15:00,
2013-09-13 23:20:00,52.5,26.4,29.32,NNW,346,0.0,0.0,36,0.00,,,0.00,VWS V13.01,2013-09-14 03:20:00,
2013-09-13 23:25:00,52.3,26.2,29.32,NNW,346,0.0,0.0,36,0.00,,,0.00,VWS V13.01,2013-09-14 03:25:00,
2013-09-13 23:30:00,52.2,26.0,29.32,NNW,346,0.0,0.0,36,0.00,,,0.00,VWS V13.01,2013-09-14 03:30:00,
2013-09-13 23:35:00,52.0,25.9,29.32,NNW,346,0.0,0.0,36,0.00,,,0.00,VWS V13.01,2013-09-14 03:35:00,
2013-09-13 23:40:00,52.0,25.9,29.32,NNW,346,0.0,0.0,36,0.00,,,0.00,VWS V13.01,2013-09-14 03:40:00,
2013-09-13 23:45:00,52.0,25.9,29.32,NNW,346,0.0,0.0,36,0.00,,,0.00,VWS V13.01,2013-09-14 03:45:00,
2013-09-13 23:50:00,51.8,25.7,29.32,NNW,346,0.0,0.0,36,0.00,,,0.00,VWS V13.01,2013-09-14 03:50:00,
2013-09-13 23:55:00,51.8,25.7,29.32,NNW,346,0.0,0.0,36,0.00,,,0.00,VWS V13.01,2013-09-14 03:55:00,